createdAt,value
2022-10-21T00:03:06.494Z,16.40
2022-10-21T00:08:07.745Z,15.75
2022-10-21T00:13:09.298Z,15.43
2022-10-21T00:18:10.568Z,15.88
2022-10-21T00:23:11.912Z,16.52
2022-10-21T00:28:13.280Z,16.85
2022-10-21T00:33:14.658Z,16.33
2022-10-21T00:38:16.028Z,15.82
2022-10-21T00:43:17.648Z,16.30
2022-10-21T00:48:34.870Z,15.65
2022-10-21T00:53:39.881Z,16.48
2022-10-21T00:58:41.241Z,15.35
2022-10-21T01:03:42.596Z,15.82
2022-10-21T01:08:43.958Z,15.35
2022-10-21T01:13:51.695Z,15.50
2022-10-21T01:19:17.790Z,14.90
2022-10-21T01:24:44.216Z,14.95
2022-10-21T01:30:07.973Z,15.93
2022-10-21T01:35:23.462Z,17.73
2022-10-21T01:40:36.968Z,14.73
2022-10-21T01:45:46.610Z,13.87
2022-10-21T01:50:53.295Z,13.45
2022-10-21T01:55:55.691Z,13.90
2022-10-21T02:01:00.345Z,15.25
2022-10-21T02:06:01.837Z,14.68
2022-10-21T02:11:07.250Z,17.42
2022-10-21T02:16:11.645Z,13.65
2022-10-21T02:21:19.752Z,13.65
2022-10-21T02:26:23.125Z,14.38
2022-10-21T02:32:15.844Z,13.33
2022-10-21T02:37:30.089Z,14.75
2022-10-21T02:47:37.027Z,16.00
2022-10-21T02:52:38.451Z,15.20
2022-10-21T02:57:40.115Z,16.45
2022-10-21T03:02:42.087Z,13.68
2022-10-21T03:07:43.415Z,12.60
2022-10-21T03:12:44.650Z,12.30
2022-10-21T03:17:46.764Z,11.95
2022-10-21T03:22:48.118Z,12.82
2022-10-21T03:27:50.607Z,12.63
2022-10-21T03:32:51.888Z,12.05
2022-10-21T03:37:53.249Z,11.93
2022-10-21T03:42:54.506Z,10.18
2022-10-21T03:47:55.860Z,11.63
2022-10-21T03:52:57.108Z,12.50
2022-10-21T03:57:58.391Z,11.63
2022-10-21T04:02:59.753Z,11.05
2022-10-21T04:08:01.100Z,10.98
2022-10-21T04:13:02.418Z,11.70
2022-10-21T04:18:03.714Z,12.77
2022-10-21T04:23:05.015Z,14.10
2022-10-21T04:28:06.248Z,17.42
2022-10-21T04:33:07.652Z,17.73
2022-10-21T04:38:08.965Z,15.27
2022-10-21T04:43:10.242Z,19.60
2022-10-21T04:48:13.577Z,16.33
2022-10-21T04:53:15.150Z,23.97
2022-10-21T04:58:20.914Z,15.75
2022-10-21T05:03:23.266Z,14.43
2022-10-21T05:08:24.585Z,15.20
2022-10-21T05:13:26.734Z,20.33
2022-10-21T05:18:28.280Z,16.83
2022-10-21T05:23:30.499Z,16.13
2022-10-21T05:28:31.802Z,14.57
2022-10-21T05:33:33.130Z,14.68
2022-10-21T05:38:35.419Z,18.90
2022-10-21T05:43:38.105Z,19.27
2022-10-21T05:48:39.408Z,17.17
2022-10-21T05:53:40.788Z,13.15
2022-10-21T05:58:42.087Z,14.32
2022-10-21T06:03:43.393Z,14.75
2022-10-21T06:08:45.392Z,14.00
2022-10-21T06:13:47.210Z,13.63
2022-10-21T06:18:48.448Z,13.32
2022-10-21T06:23:52.955Z,13.70
2022-10-21T06:28:54.215Z,12.20
2022-10-21T06:33:55.486Z,11.77
2022-10-21T06:38:56.733Z,15.32
2022-10-21T06:43:58.032Z,12.50
2022-10-21T06:48:59.344Z,13.07
2022-10-21T06:54:00.683Z,14.68
2022-10-21T06:59:01.985Z,12.60
2022-10-21T07:04:05.873Z,16.65
2022-10-21T07:09:08.554Z,11.52
2022-10-21T07:14:11.962Z,12.90
2022-10-21T07:19:13.242Z,14.40
2022-10-21T07:24:17.585Z,13.70
2022-10-21T07:29:21.328Z,10.82
2022-10-21T07:34:22.908Z,11.40
2022-10-21T07:39:26.345Z,11.32
2022-10-21T07:44:27.664Z,12.20
2022-10-21T07:49:28.947Z,12.27
2022-10-21T07:54:30.332Z,16.02
2022-10-21T07:59:31.606Z,16.38
2022-10-21T08:04:33.372Z,14.13
2022-10-21T08:09:34.782Z,17.05
2022-10-21T08:14:36.074Z,12.52
2022-10-21T08:19:37.441Z,14.73
2022-10-21T08:24:41.535Z,13.23
2022-10-21T08:29:43.767Z,11.13
2022-10-21T08:34:45.011Z,11.70
2022-10-21T08:39:46.928Z,13.02
2022-10-21T08:44:55.493Z,10.57
2022-10-21T08:50:00.285Z,10.77
2022-10-21T08:55:04.710Z,9.27
2022-10-21T09:00:22.774Z,10.68
2022-10-21T09:05:46.027Z,11.55
2022-10-21T09:10:56.291Z,11.02
2022-10-21T09:16:21.530Z,11.20
2022-10-21T09:22:33.238Z,11.43
2022-10-21T09:27:32.025Z,9.40
2022-10-21T09:32:42.345Z,9.57
2022-10-21T09:38:02.239Z,10.82
2022-10-21T09:43:05.177Z,8.88
2022-10-21T09:48:18.904Z,12.05
2022-10-21T09:53:26.450Z,8.27
2022-10-21T09:58:43.480Z,9.10
2022-10-21T10:03:47.761Z,10.55
2022-10-21T10:08:49.088Z,8.52
2022-10-21T10:13:53.054Z,8.65
2022-10-21T10:19:23.463Z,9.32
2022-10-21T10:24:24.736Z,7.85
2022-10-21T10:29:28.096Z,6.22
2022-10-21T10:34:40.035Z,6.57
2022-10-21T10:39:45.662Z,6.85
2022-10-21T10:44:51.001Z,4.72
2022-10-21T10:49:52.495Z,3.97
2022-10-21T10:55:16.156Z,3.83
2022-10-21T11:00:22.922Z,4.67
2022-10-21T11:05:37.176Z,4.00
2022-10-21T11:15:55.149Z,4.68
2022-10-21T11:21:07.120Z,4.13
2022-10-21T11:26:41.043Z,3.00
2022-10-21T11:32:12.557Z,4.75
2022-10-21T11:37:58.838Z,3.47
2022-10-21T11:43:29.634Z,7.25
2022-10-21T11:48:36.259Z,5.35
2022-10-21T11:53:51.213Z,5.10
2022-10-21T11:59:23.079Z,3.65
2022-10-21T12:04:34.257Z,6.30
2022-10-21T12:10:04.074Z,6.60
2022-10-21T12:15:25.481Z,9.10
2022-10-21T12:20:27.137Z,3.72
2022-10-21T12:25:37.601Z,5.00
2022-10-21T12:30:50.857Z,2.67
2022-10-21T12:35:55.194Z,3.17
2022-10-21T12:41:24.648Z,9.23
2022-10-21T12:46:48.586Z,3.55
2022-10-21T13:02:10.170Z,4.47
2022-10-21T13:07:12.813Z,1.90
2022-10-21T13:12:17.103Z,1.87
2022-10-21T13:17:21.441Z,3.25
2022-10-21T13:22:49.455Z,1.17
2022-10-21T13:28:03.869Z,1.75
2022-10-21T13:33:14.782Z,1.25
2022-10-21T13:38:23.786Z,1.45
2022-10-21T13:43:29.157Z,2.42
2022-10-21T13:48:30.717Z,5.93
2022-10-21T13:53:37.979Z,6.22
2022-10-21T13:58:39.788Z,3.08
2022-10-21T14:03:42.297Z,3.50
2022-10-21T14:08:46.890Z,1.95
2022-10-21T14:13:50.479Z,9.75
2022-10-21T14:18:53.490Z,17.33
2022-10-21T14:23:55.122Z,3.03
2022-10-21T14:28:58.415Z,3.72
2022-10-21T14:33:59.788Z,4.30
2022-10-21T14:39:06.549Z,3.40
2022-10-21T14:44:16.034Z,3.45
2022-10-21T14:49:22.458Z,3.20
2022-10-21T14:54:29.812Z,29.08
2022-10-21T14:59:39.060Z,3.63
2022-10-21T15:04:43.537Z,2.75
2022-10-21T15:10:03.231Z,4.45
2022-10-21T15:15:06.002Z,11.07
2022-10-21T15:20:16.154Z,5.53
2022-10-21T15:25:19.299Z,5.50
2022-10-21T15:30:21.788Z,3.10
2022-10-21T15:35:23.856Z,3.45
2022-10-21T15:40:25.182Z,2.78
2022-10-21T15:45:26.466Z,3.47
2022-10-21T15:50:27.793Z,4.57
2022-10-21T15:55:29.029Z,3.25
2022-10-21T16:00:31.979Z,5.00
2022-10-21T16:05:33.309Z,4.07
2022-10-21T16:10:36.233Z,5.43
2022-10-21T16:15:37.540Z,2.90
2022-10-21T16:20:39.611Z,3.85
2022-10-21T16:25:40.921Z,2.75
2022-10-21T16:30:42.196Z,2.28
2022-10-21T16:35:48.373Z,5.38
2022-10-21T16:40:49.620Z,2.67
2022-10-21T16:45:51.362Z,7.88
2022-10-21T16:50:52.665Z,3.75
2022-10-21T16:55:53.910Z,6.57
2022-10-21T17:00:56.512Z,5.65
2022-10-21T17:05:57.790Z,9.07
2022-10-21T17:10:59.083Z,6.90
2022-10-21T17:16:00.388Z,7.43
2022-10-21T17:21:02.262Z,6.68
2022-10-21T17:26:03.549Z,6.20
2022-10-21T17:31:04.969Z,6.22
2022-10-21T17:36:06.576Z,7.40
2022-10-21T17:41:12.923Z,4.10
2022-10-21T17:46:20.552Z,4.68
2022-10-21T17:51:23.032Z,5.30
2022-10-21T17:56:24.339Z,8.75
2022-10-21T18:01:26.091Z,7.55
2022-10-21T18:06:27.574Z,5.65
2022-10-21T18:11:28.813Z,5.57
2022-10-21T18:16:30.316Z,5.55
2022-10-21T18:21:31.635Z,5.15
2022-10-21T18:26:33.128Z,6.38
2022-10-21T18:31:36.282Z,5.15
2022-10-21T18:36:37.910Z,7.57
2022-10-21T18:41:39.403Z,5.53
2022-10-21T18:46:42.441Z,5.18
2022-10-21T18:51:43.989Z,7.45
2022-10-21T18:56:45.378Z,5.03
2022-10-21T19:01:46.688Z,4.85
2022-10-21T19:06:48.630Z,5.90
2022-10-21T19:11:50.027Z,6.07
2022-10-21T19:16:51.279Z,4.82
2022-10-21T19:21:52.797Z,6.13
2022-10-21T19:26:57.167Z,4.57
2022-10-21T19:31:58.462Z,4.88
2022-10-21T19:36:59.778Z,6.03
2022-10-21T19:42:01.280Z,8.07
2022-10-21T19:47:02.545Z,5.65
2022-10-21T19:52:04.000Z,6.80
2022-10-21T19:57:05.349Z,7.63
2022-10-21T20:02:06.705Z,4.53
2022-10-21T20:07:07.985Z,4.55
2022-10-21T20:12:09.498Z,4.40
2022-10-21T20:17:11.721Z,4.82
2022-10-21T20:22:15.513Z,4.60
2022-10-21T20:27:16.894Z,4.70
2022-10-21T20:32:18.130Z,3.83
2022-10-21T20:37:19.461Z,4.25
2022-10-21T20:42:20.746Z,7.18
2022-10-21T20:47:22.001Z,4.82
2022-10-21T20:52:23.361Z,3.63
2022-10-21T20:57:24.700Z,6.95
2022-10-21T21:02:25.933Z,5.78
2022-10-21T21:07:27.194Z,7.57
2022-10-21T21:12:28.774Z,6.07
2022-10-21T21:17:30.050Z,3.67
2022-10-21T21:22:31.326Z,4.25
2022-10-21T21:27:32.631Z,4.50
2022-10-21T21:32:33.897Z,3.60
2022-10-21T21:37:35.168Z,5.72
2022-10-21T21:42:36.621Z,5.80
2022-10-21T21:47:37.845Z,5.63
2022-10-21T21:52:39.221Z,6.80
2022-10-21T21:57:40.467Z,5.82
2022-10-21T22:02:41.762Z,5.10
2022-10-21T22:07:43.288Z,5.65
2022-10-21T22:12:45.022Z,8.35
2022-10-21T22:17:48.564Z,8.23
2022-10-21T22:22:49.847Z,6.75
2022-10-21T22:27:51.120Z,7.05
2022-10-21T22:32:52.373Z,7.53
2022-10-21T22:37:53.729Z,7.97
2022-10-21T22:42:54.965Z,7.20
2022-10-21T22:47:56.219Z,6.68
2022-10-21T22:52:57.459Z,8.00
2022-10-21T22:57:58.700Z,11.70
2022-10-21T23:02:59.981Z,6.30
2022-10-21T23:08:01.217Z,7.97
2022-10-21T23:13:02.816Z,7.00
2022-10-21T23:18:04.752Z,8.35
2022-10-21T23:23:06.209Z,6.70
2022-10-21T23:28:09.630Z,6.93
2022-10-21T23:33:10.990Z,8.32
2022-10-21T23:38:12.299Z,6.32
2022-10-21T23:43:13.621Z,8.93
2022-10-21T23:48:15.073Z,8.65
2022-10-21T23:53:16.341Z,6.47
2022-10-21T23:58:17.581Z,4.38
